Airfield :
LOGIN :

Register | Disclaimer

   EN    FR    IT 

 










Legend :    VFR   Marginal VFR   IFR   Intensive IFR   Very Intensive IFR
Visi :
Ceiling :
>= 8 km
>= 3000ft
5 to 8 km
1000 to 3000 ft
1500m to 5 km
500 to 1000 ft
800 to 1500m
200 to 500 ft
< 800m
< 200 ft
Symbols :   Thunderstorms  Fog  Heavy snow  Heavy precipitations  Wind > 20 kt
SIGMETs :     Misc.  Thunderstorms  Icing  Turbulence  Mountain Waves  Volcanic Ashes







- Airport Elevation : 1302 ft
- IATA code : GNB
- Download approach charts


LFLS - Grenoble / St. Geoirs

CURRENT METAR :
  • 200800Z AUTO 30007KT 4300 -RA BR BKN015/// OVC024/// ///TCU 12/10 Q1009 TEMPO SHRA BKN012

EXPIRED METARs :
  • 200730Z AUTO 31007KT 280V340 9999 BKN014 BKN023 OVC028 12/10 Q1009 TEMPO 3000 SHRA BKN020TCU
  • 200700Z AUTO 30006KT 9999 OVC013/// ///TCU 12/11 Q1009 TEMPO BKN012
  • 200630Z AUTO 30007KT 3200 -RA BR BKN012/// BKN017/// OVC022/// ///TCU 12/10 Q1008 TEMPO BKN012 BECMG 9999 NSW
  • 200600Z AUTO 31005KT 6000 -RA OVC013/// ///TCU 12/10 Q1008 TEMPO BKN012
  • 200530Z AUTO 29004KT 3000 +RA BR BKN012 BKN017 BKN024 12/10 Q1008 BECMG 9999 NSW

TAF AMD TAF LFLS
Valid from the 20 at 07:00 until the 21 at 03:00 UTC


200700Z 2007/2103 33005KT 9999 BKN030
TEMPO 2007/2103 -RA BKN012
PROB40
TEMPO 2007/2020 3000 SHRA BKN020TCU
ATIS : +33 4 76 65 55 89
No reported NOTAMs for that airfield.



MET'MAP, your aeronautical weather chart ! - Copyright ORBIFLY December 2007 - Disclaimer

ORBIFLY MET'MAP TEAM :

Programming & Development : Alexandra Zaïnal
Concept & Development : Baudouin d'Aumeries
Co-Development & Prog : Marc-Olivier Méhu
Technical & hardware support : Manuel Goepfert

Contact : metmap@orbifly.com




SOURCES & CREDITS :

   NOAA